Fairbanks, AK (99710)

1:38 PM AKDT on August 27, 2015 (GMT -0800)
KAKFAIRB24 | | Change Station
CLOSE
Current Station
Personal Weather Station
Location: Fairbanks, AK
Elevation: 540 ft
Nearby Weather Stations
Active Advisory: Wind Advisory

Elev 540 ft 64.81 °N, 147.70 °W | Updated 3 minutes ago

Overcast
Overcast
46.6 °F
Feels Like 47 °F
N
2.0
Wind Variable Wind from NNW
Gusts 6.0 mph

Today
High -- | Low -- °F
--% Chance of Precip.
Yesterday
High -- | Low -- °F
Precip. -- in
6:15 AM 9:27 PM
Waxing Gibbous, 95% visible
Pressure 29.69 in
Visibility 9.0 miles
Clouds Overcast 1800 ft
Windchill 47 °F
Dew Point 42 °F
Humidity 84%
Rainfall in
Snow Depth Not available.
UV 1 out of 12
Pollen Not available.
Air Quality Not available.
Flu Activity Not available.
METAR PAFB 272058Z 27016G25KT 9SM OVC018 08/05 A2968 RMK AO2A SLP054 T00810046 52016 $
Pressure 29.69 in
Visibility 9.0 miles
Clouds Overcast 1800 ft
Windchill 47 °F
Dew Point 42 °F
Humidity 84%
Rainfall in
Snow Depth Not available.
UV 1 out of 12
Pollen Not available.
Air Quality Not available.
Flu Activity Not available.
METAR PAFB 272058Z 27016G25KT 9SM OVC018 08/05 A2968 RMK AO2A SLP054 T00810046 52016 $

10-Day Weather Forecast

×

Almanac

Astronomy

Aug. 27, 2015 Rise Set
Actual Time
Civil Twilight
Nautical Twilight
Astronomical Twilight
Moon
Length of Visible Light
Length of Day
Tomorrow will be .
, % of the Moon is Illuminated

Today's Extremes

State Highs State Lows

Community

WunderPhotos

Upload Photos

1,850,236 photos uploaded!

WunderBlogs® & News

Nearby

Air Quality

  Air Quality AQ Index Pollutant
Not available.

Snow Depth

Station Depth Elevation

Earthquake Activity

City Distance Mag. Time & Date
Minimum magnitude displayed is 2.5.

Coastal Water Temperatures

Place Temperature

Stations

Nearby Weather Stations

Station Location Temp. Windchill Dew Point Humidity Wind Precip. Elev Updated Type
                   
Wind Advisory
Statement as of 5:59 AM AKDT on August 27, 2015

... Wind Advisory remains in effect until 10 PM akdt this
evening...

* winds... west winds gusting to 35 mph.

* Timing... winds gusting to 35 mph are expected to continue
through this evening.

Precautionary/preparedness actions...

A Wind Advisory means that strong winds are occurring or
expected. Travel may be difficult. Secure loose objects which may
be blown about by the wind. Due to the saturated soils these
winds could blow over a number of trees.